createdAt,value
2023-05-20T00:01:29.810Z,101927.22
2023-05-20T00:04:15.344Z,101928.38
2023-05-20T00:07:00.377Z,101927.69
2023-05-20T00:09:45.723Z,101928.69
2023-05-20T00:12:30.517Z,101932.97
2023-05-20T00:15:15.975Z,101931.06
2023-05-20T00:18:02.149Z,101927.78
2023-05-20T00:20:47.153Z,101927.97
2023-05-20T00:23:32.146Z,101936.63
2023-05-20T00:26:17.176Z,101926.78
2023-05-20T00:29:02.679Z,101936.56
2023-05-20T00:31:47.946Z,101936.41
2023-05-20T00:34:33.049Z,101929.44
2023-05-20T00:37:18.525Z,101928.31
2023-05-20T00:40:03.891Z,101931.22
2023-05-20T00:42:49.322Z,101933.25
2023-05-20T00:45:34.495Z,101928.78
2023-05-20T00:48:21.497Z,101926.25
2023-05-20T00:51:07.580Z,101929.06
2023-05-20T00:53:53.148Z,101922.50
2023-05-20T00:56:38.475Z,101923.59
2023-05-20T00:59:24.224Z,101927.22
2023-05-20T01:02:09.384Z,101925.56
2023-05-20T01:04:56.881Z,101922.91
2023-05-20T01:07:42.434Z,101922.06
2023-05-20T01:10:30.448Z,101923.03
2023-05-20T01:13:19.912Z,101915.31
2023-05-20T01:16:05.632Z,101908.31
2023-05-20T01:18:55.138Z,101906.25
2023-05-20T01:21:42.450Z,101914.41
2023-05-20T01:24:27.561Z,101917.03
2023-05-20T01:27:13.427Z,101910.75
2023-05-20T01:29:58.868Z,101914.13
2023-05-20T01:32:58.534Z,101916.69
2023-05-20T01:35:43.846Z,101911.25
2023-05-20T01:38:29.648Z,101916.00
2023-05-20T01:41:15.048Z,101912.59
2023-05-20T01:44:01.876Z,101913.59
2023-05-20T01:46:51.346Z,101907.47
2023-05-20T01:49:36.606Z,101915.41
2023-05-20T01:52:22.467Z,101909.34
2023-05-20T01:55:07.710Z,101906.50
2023-05-20T01:57:52.715Z,101903.81
2023-05-20T02:00:37.933Z,101902.25
2023-05-20T02:03:23.421Z,101902.28
2023-05-20T02:06:08.251Z,101899.63
2023-05-20T02:08:53.486Z,101886.56
2023-05-20T02:11:38.288Z,101892.25
2023-05-20T02:14:23.070Z,101887.38
2023-05-20T02:17:07.975Z,101894.38
2023-05-20T02:19:52.771Z,101897.13
2023-05-20T02:22:37.910Z,101888.13
2023-05-20T02:25:24.185Z,101886.44
2023-05-20T02:28:11.016Z,101887.31
2023-05-20T02:30:55.821Z,101894.50
2023-05-20T02:33:41.011Z,101891.72
2023-05-20T02:36:25.823Z,101888.28
2023-05-20T02:39:11.104Z,101881.44
2023-05-20T02:41:56.318Z,101886.53
2023-05-20T02:44:41.791Z,101891.88
2023-05-20T02:47:27.199Z,101891.63
2023-05-20T02:50:12.218Z,101892.78
2023-05-20T02:52:57.409Z,101900.78
2023-05-20T02:55:42.575Z,101894.75
2023-05-20T02:58:28.701Z,101892.84
2023-05-20T03:01:13.945Z,101890.22
2023-05-20T03:03:59.365Z,101890.16
2023-05-20T03:06:46.413Z,101892.09
2023-05-20T03:09:32.108Z,101890.84
2023-05-20T03:12:17.381Z,101888.19
2023-05-20T03:15:02.277Z,101897.25
2023-05-20T03:17:47.275Z,101901.69
2023-05-20T03:20:38.596Z,101906.03
2023-05-20T03:23:23.465Z,101901.69
2023-05-20T03:26:08.301Z,101901.75
2023-05-20T03:28:53.208Z,101908.81
2023-05-20T03:31:38.264Z,101899.97
2023-05-20T03:34:23.370Z,101897.41
2023-05-20T03:37:08.208Z,101897.41
2023-05-20T03:39:53.101Z,101899.03
2023-05-20T03:42:38.852Z,101903.50
2023-05-20T03:45:23.683Z,101902.63
2023-05-20T03:48:08.505Z,101906.06
2023-05-20T03:50:53.996Z,101907.84
2023-05-20T03:53:39.212Z,101908.63
2023-05-20T03:56:24.519Z,101911.09
2023-05-20T03:59:10.307Z,101918.75
2023-05-20T04:01:56.947Z,101912.97
2023-05-20T04:04:45.536Z,101913.66
2023-05-20T04:07:30.694Z,101912.63
2023-05-20T04:10:15.549Z,101916.31
2023-05-20T04:13:00.571Z,101914.59
2023-05-20T04:15:46.627Z,101922.38
2023-05-20T04:18:31.800Z,101915.25
2023-05-20T04:21:17.050Z,101917.09
2023-05-20T04:24:02.013Z,101914.63
2023-05-20T04:26:48.121Z,101920.72
2023-05-20T04:29:34.205Z,101924.31
2023-05-20T04:32:19.544Z,101919.06
2023-05-20T04:35:09.876Z,101918.16
2023-05-20T04:37:55.505Z,101915.44
2023-05-20T04:40:41.657Z,101913.78
2023-05-20T04:43:30.062Z,101919.78
2023-05-20T04:46:16.851Z,101914.50
2023-05-20T04:49:02.067Z,101912.75
2023-05-20T04:51:50.543Z,101911.88
2023-05-20T04:54:35.564Z,101917.16
2023-05-20T04:57:21.392Z,101906.63
2023-05-20T05:00:10.346Z,101909.28
2023-05-20T05:02:55.837Z,101909.09
2023-05-20T05:05:42.413Z,101910.06
2023-05-20T05:08:27.545Z,101906.63
2023-05-20T05:11:12.317Z,101910.06
2023-05-20T05:13:57.153Z,101901.28
2023-05-20T05:16:42.255Z,101910.75
2023-05-20T05:19:27.183Z,101899.44
2023-05-20T05:22:12.916Z,101908.09
2023-05-20T05:24:58.814Z,101907.94
2023-05-20T05:27:44.712Z,101906.19
2023-05-20T05:30:30.270Z,101906.09
2023-05-20T05:33:15.958Z,101906.91
2023-05-20T05:36:03.006Z,101915.50
2023-05-20T05:38:47.971Z,101915.38
2023-05-20T05:41:33.805Z,101912.75
2023-05-20T05:44:18.731Z,101905.78
2023-05-20T05:47:03.819Z,101907.50
2023-05-20T05:49:48.848Z,101903.16
2023-05-20T05:52:33.645Z,101903.00
2023-05-20T05:55:18.566Z,101898.59
2023-05-20T05:58:03.450Z,101907.13
2023-05-20T06:00:52.763Z,101899.31
2023-05-20T06:03:38.706Z,101901.69
2023-05-20T06:06:24.000Z,101897.09
2023-05-20T06:09:08.844Z,101892.63
2023-05-20T06:11:53.968Z,101885.66
2023-05-20T06:14:39.012Z,101883.53
2023-05-20T06:17:24.430Z,101885.88
2023-05-20T06:20:09.541Z,101889.53
2023-05-20T06:22:54.789Z,101882.41
2023-05-20T06:25:39.779Z,101879.72
2023-05-20T06:28:25.662Z,101881.38
2023-05-20T06:31:10.600Z,101881.78
2023-05-20T06:33:56.020Z,101881.28
2023-05-20T06:36:41.710Z,101881.81
2023-05-20T06:39:26.808Z,101892.25
2023-05-20T06:42:12.258Z,101882.66
2023-05-20T06:44:57.204Z,101876.81
2023-05-20T06:47:42.840Z,101878.38
2023-05-20T06:50:28.399Z,101878.44
2023-05-20T06:53:13.925Z,101880.13
2023-05-20T06:55:58.960Z,101878.22
2023-05-20T06:58:44.680Z,101885.19
2023-05-20T07:01:29.558Z,101874.75
2023-05-20T07:04:14.662Z,101869.94
2023-05-20T07:06:59.911Z,101875.72
2023-05-20T07:09:45.662Z,101868.28
2023-05-20T07:12:30.761Z,101867.84
2023-05-20T07:15:15.860Z,101871.34
2023-05-20T07:18:01.008Z,101871.91
2023-05-20T07:20:46.972Z,101878.31
2023-05-20T07:23:34.215Z,101877.47
2023-05-20T07:26:19.672Z,101876.97
2023-05-20T07:29:05.314Z,101880.84
2023-05-20T07:31:50.074Z,101865.50
2023-05-20T07:34:35.757Z,101868.66
2023-05-20T07:37:20.762Z,101861.53
2023-05-20T07:40:07.946Z,101855.56
2023-05-20T07:42:52.662Z,101862.47
2023-05-20T07:45:37.671Z,101849.44
2023-05-20T07:48:23.040Z,101851.25
2023-05-20T07:51:07.850Z,101846.56
2023-05-20T07:53:52.592Z,101844.38
2023-05-20T07:56:37.721Z,101850.19
2023-05-20T07:59:22.472Z,101848.66
2023-05-20T08:02:08.496Z,101847.91
2023-05-20T08:04:53.738Z,101842.72
2023-05-20T08:07:38.537Z,101846.34
2023-05-20T08:10:23.848Z,101835.97
2023-05-20T08:13:08.745Z,101840.28
2023-05-20T08:15:54.757Z,101838.84
2023-05-20T08:18:40.087Z,101835.44
2023-05-20T08:21:25.624Z,101841.34
2023-05-20T08:24:10.400Z,101831.66
2023-05-20T08:26:55.205Z,101828.97
2023-05-20T08:29:40.102Z,101823.69
2023-05-20T08:32:25.016Z,101819.03
2023-05-20T08:35:10.157Z,101812.22
2023-05-20T08:37:54.977Z,101821.47
2023-05-20T08:40:42.475Z,101821.63
2023-05-20T08:43:27.421Z,101821.47
2023-05-20T08:46:12.790Z,101827.28
2023-05-20T08:48:59.244Z,101828.28
2023-05-20T08:51:46.500Z,101829.09
2023-05-20T08:54:46.036Z,101816.09
2023-05-20T08:57:31.249Z,101824.13
2023-05-20T09:00:17.269Z,101815.41
2023-05-20T09:03:03.108Z,101817.50
2023-05-20T09:05:48.474Z,101816.34
2023-05-20T09:08:34.074Z,101818.53
2023-05-20T09:11:22.960Z,101809.19
2023-05-20T09:14:08.808Z,101812.03
2023-05-20T09:16:54.142Z,101810.50
2023-05-20T09:19:39.108Z,101817.22
2023-05-20T09:22:25.423Z,101809.47
2023-05-20T09:25:12.307Z,101820.13
2023-05-20T09:27:57.346Z,101815.13
2023-05-20T09:30:44.491Z,101824.56
2023-05-20T09:33:32.398Z,101825.69
2023-05-20T09:36:17.723Z,101818.47
2023-05-20T09:39:05.498Z,101815.44
2023-05-20T09:42:09.427Z,101822.34
2023-05-20T09:44:55.287Z,101813.13
2023-05-20T09:47:41.677Z,101806.31
2023-05-20T09:50:28.700Z,101802.81
2023-05-20T09:53:14.523Z,101805.03
2023-05-20T09:55:59.653Z,101810.25
2023-05-20T09:58:45.691Z,101802.16
2023-05-20T10:01:31.110Z,101800.66
2023-05-20T10:04:18.858Z,101788.91
2023-05-20T10:07:42.261Z,101800.06
2023-05-20T10:10:45.856Z,101800.41
2023-05-20T10:14:06.145Z,101803.16
2023-05-20T10:17:07.779Z,101807.28
2023-05-20T10:19:59.545Z,101802.94
2023-05-20T10:22:57.129Z,101791.66
2023-05-20T10:25:52.621Z,101800.44
2023-05-20T10:28:41.112Z,101799.44
2023-05-20T10:31:26.312Z,101800.06
2023-05-20T10:34:17.476Z,101793.06
2023-05-20T10:37:02.481Z,101792.38
2023-05-20T10:39:49.272Z,101783.66
2023-05-20T10:42:34.373Z,101780.16
2023-05-20T10:45:29.666Z,101779.50
2023-05-20T10:48:42.033Z,101777.13
2023-05-20T10:51:29.565Z,101773.84
2023-05-20T10:54:15.238Z,101779.81
2023-05-20T10:57:00.656Z,101779.66
2023-05-20T10:59:47.814Z,101783.09
2023-05-20T11:02:34.126Z,101778.91
2023-05-20T11:05:21.000Z,101773.91
2023-05-20T11:08:20.649Z,101775.72
2023-05-20T11:11:15.315Z,101780.72
2023-05-20T11:14:00.742Z,101782.28
2023-05-20T11:16:46.671Z,101778.69
2023-05-20T11:19:31.844Z,101780.56
2023-05-20T11:22:17.536Z,101775.19
2023-05-20T11:25:07.205Z,101771.34
2023-05-20T11:27:52.008Z,101768.81
2023-05-20T11:30:39.655Z,101767.72
2023-05-20T11:33:27.274Z,101760.63
2023-05-20T11:36:26.863Z,101762.50
2023-05-20T11:39:14.779Z,101762.09
2023-05-20T11:41:59.801Z,101757.69
2023-05-20T11:44:48.434Z,101755.09
2023-05-20T11:47:33.967Z,101753.88
2023-05-20T11:50:19.103Z,101742.56
2023-05-20T11:53:06.309Z,101740.59
2023-05-20T11:55:55.307Z,101746.78
2023-05-20T11:58:40.147Z,101736.38
2023-05-20T12:01:25.496Z,101731.84
2023-05-20T12:04:11.229Z,101728.03
2023-05-20T12:06:56.477Z,101727.25
2023-05-20T12:09:41.406Z,101719.97
2023-05-20T12:12:26.902Z,101725.31
2023-05-20T12:15:12.328Z,101713.91
2023-05-20T12:17:57.529Z,101711.13
2023-05-20T12:20:42.745Z,101708.81
2023-05-20T12:23:30.980Z,101701.03
2023-05-20T12:26:16.223Z,101699.25
2023-05-20T12:29:01.644Z,101687.97
2023-05-20T12:31:47.880Z,101697.84
2023-05-20T12:34:36.157Z,101690.69
2023-05-20T12:37:22.264Z,101684.97
2023-05-20T12:40:08.846Z,101690.31
2023-05-20T12:42:53.829Z,101680.81
2023-05-20T12:45:38.759Z,101672.19
2023-05-20T12:48:23.529Z,101671.50
2023-05-20T12:51:08.472Z,101662.47
2023-05-20T12:53:53.243Z,101667.69
2023-05-20T12:56:39.250Z,101660.13
2023-05-20T12:59:24.017Z,101658.75
2023-05-20T13:02:10.652Z,101649.09
2023-05-20T13:04:56.275Z,101652.19
2023-05-20T13:07:41.687Z,101653.66
2023-05-20T13:10:26.778Z,101644.78
2023-05-20T13:13:14.430Z,101639.34
2023-05-20T13:15:59.695Z,101630.38
2023-05-20T13:18:45.266Z,101643.47
2023-05-20T13:21:32.795Z,101642.41
2023-05-20T13:24:18.804Z,101638.66
2023-05-20T13:27:04.627Z,101649.31
2023-05-20T13:29:50.125Z,101625.50
2023-05-20T13:32:35.192Z,101613.91
2023-05-20T13:35:21.182Z,101618.25
2023-05-20T13:38:06.298Z,101619.81
2023-05-20T13:40:51.508Z,101618.25
2023-05-20T13:43:37.356Z,101610.91
2023-05-20T13:46:26.112Z,101613.06
2023-05-20T13:49:11.304Z,101611.88
2023-05-20T13:51:56.425Z,101603.41
2023-05-20T13:54:42.951Z,101599.06
2023-05-20T13:57:27.851Z,101597.41
2023-05-20T14:00:13.995Z,101605.72
2023-05-20T14:03:00.675Z,101594.34
2023-05-20T14:05:46.276Z,101593.78
2023-05-20T14:08:31.288Z,101589.25
2023-05-20T14:11:16.774Z,101580.25
2023-05-20T14:14:02.343Z,101566.91
2023-05-20T14:16:47.896Z,101565.31
2023-05-20T14:19:33.009Z,101570.50
2023-05-20T14:22:19.846Z,101570.41
2023-05-20T14:25:05.814Z,101569.44
2023-05-20T14:27:51.393Z,101561.84
2023-05-20T14:30:37.143Z,101567.69
2023-05-20T14:33:22.339Z,101560.09
2023-05-20T14:36:09.341Z,101557.19
2023-05-20T14:38:54.133Z,101553.66
2023-05-20T14:41:39.727Z,101555.22
2023-05-20T14:44:24.777Z,101541.47
2023-05-20T14:47:10.836Z,101538.63
2023-05-20T14:49:56.840Z,101545.16
2023-05-20T14:52:42.262Z,101545.59
2023-05-20T14:55:27.740Z,101544.69
2023-05-20T14:58:12.723Z,101544.59
2023-05-20T15:00:58.008Z,101546.50
2023-05-20T15:03:43.296Z,101546.25
2023-05-20T15:06:28.778Z,101540.75
2023-05-20T15:09:13.847Z,101533.50
2023-05-20T15:11:58.681Z,101530.59
2023-05-20T15:14:43.527Z,101527.16
2023-05-20T15:17:29.368Z,101533.25
2023-05-20T15:20:14.850Z,101524.34
2023-05-20T15:23:01.061Z,101531.66
2023-05-20T15:25:46.840Z,101533.78
2023-05-20T15:28:31.905Z,101537.59
2023-05-20T15:31:17.219Z,101534.91
2023-05-20T15:34:02.636Z,101520.59
2023-05-20T15:36:48.371Z,101520.69
2023-05-20T15:39:37.357Z,101523.81
2023-05-20T15:42:22.380Z,101513.13
2023-05-20T15:45:09.095Z,101508.78
2023-05-20T15:47:54.694Z,101505.91
2023-05-20T15:50:40.354Z,101506.72
2023-05-20T15:53:25.427Z,101505.38
2023-05-20T15:56:12.805Z,101501.47
2023-05-20T15:58:57.717Z,101495.72
2023-05-20T16:01:42.942Z,101487.97
2023-05-20T16:04:28.055Z,101486.81
2023-05-20T16:07:13.429Z,101476.38
2023-05-20T16:09:58.361Z,101476.75
2023-05-20T16:12:44.538Z,101475.25
2023-05-20T16:15:35.833Z,101464.75
2023-05-20T16:18:21.154Z,101458.78
2023-05-20T16:21:08.347Z,101452.44
2023-05-20T16:23:53.507Z,101455.53
2023-05-20T16:26:38.377Z,101451.34
2023-05-20T16:29:23.298Z,101440.88
2023-05-20T16:32:08.646Z,101449.03
2023-05-20T16:34:54.659Z,101439.72
2023-05-20T16:37:39.788Z,101444.78
2023-05-20T16:40:24.765Z,101449.06
2023-05-20T16:43:10.595Z,101451.97
2023-05-20T16:45:56.116Z,101455.91
2023-05-20T16:48:42.729Z,101456.28
2023-05-20T16:51:27.741Z,101458.28
2023-05-20T16:54:13.025Z,101449.69
2023-05-20T16:56:58.183Z,101461.84
2023-05-20T16:59:43.153Z,101459.88
2023-05-20T17:02:29.830Z,101454.44
2023-05-20T17:05:16.776Z,101457.09
2023-05-20T17:08:04.600Z,101454.91
2023-05-20T17:10:52.444Z,101451.03
2023-05-20T17:13:42.056Z,101458.59
2023-05-20T17:16:27.374Z,101462.44
2023-05-20T17:19:12.163Z,101458.53
2023-05-20T17:21:58.411Z,101460.91
2023-05-20T17:24:44.893Z,101458.50
2023-05-20T17:27:30.205Z,101461.84
2023-05-20T17:30:15.819Z,101457.94
2023-05-20T17:33:01.467Z,101462.19
2023-05-20T17:35:47.118Z,101460.09
2023-05-20T17:38:32.678Z,101460.22
2023-05-20T17:41:23.864Z,101455.13
2023-05-20T17:44:09.504Z,101462.50
2023-05-20T17:46:54.198Z,101458.09
2023-05-20T17:49:39.594Z,101455.69
2023-05-20T17:52:24.629Z,101458.63
2023-05-20T17:55:10.113Z,101458.91
2023-05-20T17:57:58.060Z,101462.94
2023-05-20T18:00:42.927Z,101458.78
2023-05-20T18:03:29.041Z,101458.34
2023-05-20T18:06:14.197Z,101458.78
2023-05-20T18:08:59.922Z,101459.19
2023-05-20T18:11:44.947Z,101466.19
2023-05-20T18:14:32.593Z,101462.97
2023-05-20T18:17:17.901Z,101467.59
2023-05-20T18:20:04.421Z,101462.31
2023-05-20T18:22:52.158Z,101462.19
2023-05-20T18:25:38.320Z,101459.56
2023-05-20T18:28:24.370Z,101454.28
2023-05-20T18:31:09.194Z,101459.47
2023-05-20T18:33:54.438Z,101463.25
2023-05-20T18:36:40.760Z,101458.59
2023-05-20T18:39:26.650Z,101463.22
2023-05-20T18:42:11.605Z,101466.69
2023-05-20T18:44:56.805Z,101471.53
2023-05-20T18:47:42.105Z,101471.34
2023-05-20T18:50:27.228Z,101468.66
2023-05-20T18:53:13.440Z,101475.16
2023-05-20T18:56:02.882Z,101473.09
2023-05-20T18:58:49.333Z,101466.97
2023-05-20T19:01:36.860Z,101470.66
2023-05-20T19:04:22.677Z,101469.44
2023-05-20T19:07:10.384Z,101473.00
2023-05-20T19:09:56.724Z,101475.56
2023-05-20T19:12:43.789Z,101474.91
2023-05-20T19:15:30.112Z,101489.09
2023-05-20T19:18:15.656Z,101483.09
2023-05-20T19:21:00.518Z,101492.69
2023-05-20T19:23:46.837Z,101488.38
2023-05-20T19:26:33.493Z,101492.66
2023-05-20T19:29:19.378Z,101498.09
2023-05-20T19:32:06.205Z,101485.09
2023-05-20T19:34:52.244Z,101490.38
2023-05-20T19:37:37.382Z,101500.13
2023-05-20T19:40:22.663Z,101496.53
2023-05-20T19:43:07.948Z,101503.47
2023-05-20T19:45:52.839Z,101495.94
2023-05-20T19:48:38.160Z,101499.44
2023-05-20T19:51:23.197Z,101494.44
2023-05-20T19:54:08.005Z,101490.09
2023-05-20T19:56:52.807Z,101489.31
2023-05-20T19:59:38.045Z,101492.00
2023-05-20T20:02:23.812Z,101490.00
2023-05-20T20:05:09.794Z,101488.75
2023-05-20T20:07:55.239Z,101486.00
2023-05-20T20:10:40.401Z,101490.34
2023-05-20T20:13:25.603Z,101479.19
2023-05-20T20:16:10.930Z,101476.63
2023-05-20T20:18:56.237Z,101477.63
2023-05-20T20:21:42.902Z,101481.03
2023-05-20T20:24:28.790Z,101487.03
2023-05-20T20:27:13.912Z,101482.03
2023-05-20T20:30:00.635Z,101488.75
2023-05-20T20:32:48.463Z,101472.47
2023-05-20T20:35:36.691Z,101471.78
2023-05-20T20:38:22.312Z,101470.13
2023-05-20T20:41:09.378Z,101470.13
2023-05-20T20:43:55.608Z,101470.34
2023-05-20T20:46:42.598Z,101463.16
2023-05-20T20:49:28.747Z,101471.53
2023-05-20T20:52:14.163Z,101467.59
2023-05-20T20:55:02.167Z,101467.75
2023-05-20T20:57:47.918Z,101457.53
2023-05-20T21:00:33.738Z,101456.34
2023-05-20T21:03:18.935Z,101459.19
2023-05-20T21:06:04.183Z,101461.09
2023-05-20T21:08:49.273Z,101455.44
2023-05-20T21:11:38.141Z,101450.03
2023-05-20T21:14:25.837Z,101450.84
2023-05-20T21:17:12.060Z,101439.63
2023-05-20T21:19:58.468Z,101436.50
2023-05-20T21:22:44.708Z,101433.25
2023-05-20T21:25:29.964Z,101435.91
2023-05-20T21:28:16.996Z,101429.00
2023-05-20T21:31:01.830Z,101416.75
2023-05-20T21:33:48.106Z,101429.00
2023-05-20T21:36:33.396Z,101422.66
2023-05-20T21:39:18.648Z,101414.31
2023-05-20T21:42:06.601Z,101412.31
2023-05-20T21:44:54.900Z,101409.16
2023-05-20T21:47:40.562Z,101410.22
2023-05-20T21:50:25.634Z,101416.31
2023-05-20T21:53:10.365Z,101416.53
2023-05-20T21:55:55.400Z,101420.06
2023-05-20T21:58:42.105Z,101415.59
2023-05-20T22:01:27.542Z,101414.59
2023-05-20T22:04:13.335Z,101406.69
2023-05-20T22:06:58.471Z,101400.00
2023-05-20T22:09:43.748Z,101403.22
2023-05-20T22:12:29.193Z,101405.78
2023-05-20T22:15:14.180Z,101398.28
2023-05-20T22:17:59.113Z,101398.19
2023-05-20T22:20:45.219Z,101401.06
2023-05-20T22:23:30.563Z,101394.00
2023-05-20T22:26:19.089Z,101393.28
2023-05-20T22:29:04.424Z,101394.03
2023-05-20T22:31:49.487Z,101391.69
2023-05-20T22:34:34.799Z,101385.72
2023-05-20T22:37:21.022Z,101381.22
2023-05-20T22:40:07.136Z,101370.25
2023-05-20T22:42:53.900Z,101377.56
2023-05-20T22:45:40.293Z,101380.41
2023-05-20T22:48:25.579Z,101368.09
2023-05-20T22:51:11.890Z,101375.00
2023-05-20T22:53:56.625Z,101372.75
2023-05-20T22:56:42.285Z,101360.00
2023-05-20T22:59:30.852Z,101355.81
2023-05-20T23:02:15.912Z,101364.50
2023-05-20T23:05:02.446Z,101355.06
2023-05-20T23:07:47.345Z,101354.34
2023-05-20T23:10:32.113Z,101356.97
2023-05-20T23:13:17.067Z,101353.97
2023-05-20T23:16:02.045Z,101350.53
2023-05-20T23:18:47.523Z,101341.94
2023-05-20T23:21:32.589Z,101340.97
2023-05-20T23:24:17.885Z,101342.84
2023-05-20T23:27:04.389Z,101336.91
2023-05-20T23:29:49.227Z,101328.16
2023-05-20T23:32:34.131Z,101337.66
2023-05-20T23:35:19.707Z,101328.19
2023-05-20T23:38:04.921Z,101337.72
2023-05-20T23:40:49.866Z,101328.19
2023-05-20T23:43:34.702Z,101323.81
2023-05-20T23:46:20.913Z,101321.09
2023-05-20T23:49:06.608Z,101322.97
2023-05-20T23:51:51.690Z,101316.13
2023-05-20T23:54:36.631Z,101324.00
2023-05-20T23:57:22.453Z,101321.66
